sensor_id;sensor_type;location;lat;lon;timestamp;P1;durP1;ratioP1;P2;durP2;ratioP2
14118;SDS011;7138;49.246;9.100;2023-04-15T00:00:10;6.55;;;3.45;;
14118;SDS011;7138;49.246;9.100;2023-04-15T00:02:37;9.60;;;3.70;;
14118;SDS011;7138;49.246;9.100;2023-04-15T00:05:03;7.82;;;3.63;;
14118;SDS011;7138;49.246;9.100;2023-04-15T00:07:30;7.70;;;3.28;;
14118;SDS011;7138;49.246;9.100;2023-04-15T00:09:57;8.18;;;4.07;;
14118;SDS011;7138;49.246;9.100;2023-04-15T00:12:23;8.80;;;4.28;;
14118;SDS011;7138;49.246;9.100;2023-04-15T00:14:50;9.38;;;3.88;;
14118;SDS011;7138;49.246;9.100;2023-04-15T00:17:17;8.85;;;3.42;;
14118;SDS011;7138;49.246;9.100;2023-04-15T00:19:43;8.00;;;3.60;;
14118;SDS011;7138;49.246;9.100;2023-04-15T00:22:09;6.88;;;3.80;;
14118;SDS011;7138;49.246;9.100;2023-04-15T00:24:36;8.00;;;3.70;;
14118;SDS011;7138;49.246;9.100;2023-04-15T00:27:02;9.10;;;3.60;;
14118;SDS011;7138;49.246;9.100;2023-04-15T00:29:28;8.43;;;3.30;;
14118;SDS011;7138;49.246;9.100;2023-04-15T00:31:54;6.43;;;3.60;;
14118;SDS011;7138;49.246;9.100;2023-04-15T00:34:22;6.45;;;3.47;;
14118;SDS011;7138;49.246;9.100;2023-04-15T00:36:48;8.60;;;4.05;;
14118;SDS011;7138;49.246;9.100;2023-04-15T00:39:16;8.65;;;3.47;;
14118;SDS011;7138;49.246;9.100;2023-04-15T00:41:42;6.72;;;3.47;;
14118;SDS011;7138;49.246;9.100;2023-04-15T00:44:08;11.00;;;3.63;;
14118;SDS011;7138;49.246;9.100;2023-04-15T00:46:35;8.90;;;2.97;;
14118;SDS011;7138;49.246;9.100;2023-04-15T00:49:02;9.10;;;3.67;;
14118;SDS011;7138;49.246;9.100;2023-04-15T00:51:31;7.13;;;3.40;;
14118;SDS011;7138;49.246;9.100;2023-04-15T00:54:00;8.70;;;3.90;;
14118;SDS011;7138;49.246;9.100;2023-04-15T00:56:26;9.48;;;3.50;;
14118;SDS011;7138;49.246;9.100;2023-04-15T00:58:53;7.82;;;3.53;;
14118;SDS011;7138;49.246;9.100;2023-04-15T01:01:23;11.63;;;3.72;;
14118;SDS011;7138;49.246;9.100;2023-04-15T01:03:50;9.32;;;3.38;;
14118;SDS011;7138;49.246;9.100;2023-04-15T01:06:16;7.95;;;4.03;;
14118;SDS011;7138;49.246;9.100;2023-04-15T01:08:44;8.32;;;3.42;;
14118;SDS011;7138;49.246;9.100;2023-04-15T01:11:10;10.98;;;4.00;;
14118;SDS011;7138;49.246;9.100;2023-04-15T01:13:37;8.77;;;3.70;;
14118;SDS011;7138;49.246;9.100;2023-04-15T01:16:04;7.25;;;3.85;;
14118;SDS011;7138;49.246;9.100;2023-04-15T01:18:31;9.13;;;3.83;;
14118;SDS011;7138;49.246;9.100;2023-04-15T01:20:58;8.93;;;3.90;;
14118;SDS011;7138;49.246;9.100;2023-04-15T01:23:28;6.88;;;3.72;;
14118;SDS011;7138;49.246;9.100;2023-04-15T01:25:56;7.72;;;3.65;;
14118;SDS011;7138;49.246;9.100;2023-04-15T01:28:23;5.28;;;3.38;;
14118;SDS011;7138;49.246;9.100;2023-04-15T01:30:49;7.95;;;3.53;;
14118;SDS011;7138;49.246;9.100;2023-04-15T01:35:55;11.00;;;4.38;;
14118;SDS011;7138;49.246;9.100;2023-04-15T01:38:21;7.30;;;4.13;;
14118;SDS011;7138;49.246;9.100;2023-04-15T01:40:48;10.85;;;4.93;;
14118;SDS011;7138;49.246;9.100;2023-04-15T01:43:15;9.35;;;4.75;;
14118;SDS011;7138;49.246;9.100;2023-04-15T01:45:41;11.57;;;4.25;;
14118;SDS011;7138;49.246;9.100;2023-04-15T01:48:07;8.73;;;3.88;;
14118;SDS011;7138;49.246;9.100;2023-04-15T01:50:33;8.23;;;3.90;;
14118;SDS011;7138;49.246;9.100;2023-04-15T01:53:00;9.10;;;4.68;;
14118;SDS011;7138;49.246;9.100;2023-04-15T01:55:26;9.35;;;4.38;;
14118;SDS011;7138;49.246;9.100;2023-04-15T01:57:52;11.95;;;4.88;;
14118;SDS011;7138;49.246;9.100;2023-04-15T02:00:19;10.75;;;4.13;;
14118;SDS011;7138;49.246;9.100;2023-04-15T02:02:46;7.78;;;3.97;;
14118;SDS011;7138;49.246;9.100;2023-04-15T02:05:12;9.57;;;3.90;;
14118;SDS011;7138;49.246;9.100;2023-04-15T02:07:38;8.65;;;4.50;;
14118;SDS011;7138;49.246;9.100;2023-04-15T02:10:04;10.70;;;3.90;;
14118;SDS011;7138;49.246;9.100;2023-04-15T02:12:30;11.25;;;4.10;;
14118;SDS011;7138;49.246;9.100;2023-04-15T02:14:56;7.95;;;4.30;;
14118;SDS011;7138;49.246;9.100;2023-04-15T02:17:23;10.77;;;4.20;;
14118;SDS011;7138;49.246;9.100;2023-04-15T02:19:50;7.95;;;4.53;;
14118;SDS011;7138;49.246;9.100;2023-04-15T02:22:15;10.10;;;4.80;;
14118;SDS011;7138;49.246;9.100;2023-04-15T02:24:42;7.95;;;4.53;;
14118;SDS011;7138;49.246;9.100;2023-04-15T02:27:10;9.23;;;4.50;;
14118;SDS011;7138;49.246;9.100;2023-04-15T02:29:40;7.68;;;4.20;;
14118;SDS011;7138;49.246;9.100;2023-04-15T02:32:07;10.70;;;4.00;;
14118;SDS011;7138;49.246;9.100;2023-04-15T02:34:34;8.10;;;3.92;;
14118;SDS011;7138;49.246;9.100;2023-04-15T02:37:01;9.25;;;4.38;;
14118;SDS011;7138;49.246;9.100;2023-04-15T02:39:27;9.05;;;4.30;;
14118;SDS011;7138;49.246;9.100;2023-04-15T02:41:53;8.55;;;4.18;;
14118;SDS011;7138;49.246;9.100;2023-04-15T02:44:19;8.00;;;3.70;;
14118;SDS011;7138;49.246;9.100;2023-04-15T02:46:46;9.13;;;3.50;;
14118;SDS011;7138;49.246;9.100;2023-04-15T02:49:14;6.57;;;4.20;;
14118;SDS011;7138;49.246;9.100;2023-04-15T02:51:42;6.50;;;3.75;;
14118;SDS011;7138;49.246;9.100;2023-04-15T02:54:11;9.15;;;4.50;;
14118;SDS011;7138;49.246;9.100;2023-04-15T02:56:37;7.07;;;3.85;;
14118;SDS011;7138;49.246;9.100;2023-04-15T02:59:03;11.23;;;4.97;;
14118;SDS011;7138;49.246;9.100;2023-04-15T03:01:29;7.53;;;3.80;;
14118;SDS011;7138;49.246;9.100;2023-04-15T03:03:55;9.02;;;4.30;;
14118;SDS011;7138;49.246;9.100;2023-04-15T03:06:21;6.28;;;4.00;;
14118;SDS011;7138;49.246;9.100;2023-04-15T03:08:51;9.77;;;4.47;;
14118;SDS011;7138;49.246;9.100;2023-04-15T03:11:18;8.25;;;4.50;;
14118;SDS011;7138;49.246;9.100;2023-04-15T03:13:44;6.60;;;3.97;;
14118;SDS011;7138;49.246;9.100;2023-04-15T03:16:10;7.22;;;4.22;;
14118;SDS011;7138;49.246;9.100;2023-04-15T03:18:36;8.23;;;4.15;;
14118;SDS011;7138;49.246;9.100;2023-04-15T03:21:02;7.70;;;4.63;;
14118;SDS011;7138;49.246;9.100;2023-04-15T03:23:29;7.75;;;4.43;;
14118;SDS011;7138;49.246;9.100;2023-04-15T03:25:59;10.00;;;4.20;;
14118;SDS011;7138;49.246;9.100;2023-04-15T03:28:26;7.70;;;3.88;;
14118;SDS011;7138;49.246;9.100;2023-04-15T03:30:53;9.65;;;4.57;;
14118;SDS011;7138;49.246;9.100;2023-04-15T03:33:19;8.07;;;4.28;;
14118;SDS011;7138;49.246;9.100;2023-04-15T03:35:45;6.13;;;4.10;;
14118;SDS011;7138;49.246;9.100;2023-04-15T03:38:11;7.78;;;4.40;;
14118;SDS011;7138;49.246;9.100;2023-04-15T03:40:37;9.25;;;4.10;;
14118;SDS011;7138;49.246;9.100;2023-04-15T03:43:06;8.80;;;4.13;;
14118;SDS011;7138;49.246;9.100;2023-04-15T03:45:32;7.28;;;4.05;;
14118;SDS011;7138;49.246;9.100;2023-04-15T03:47:58;8.13;;;5.32;;
14118;SDS011;7138;49.246;9.100;2023-04-15T03:50:24;6.13;;;3.42;;
14118;SDS011;7138;49.246;9.100;2023-04-15T03:52:49;7.47;;;3.88;;
14118;SDS011;7138;49.246;9.100;2023-04-15T03:55:15;6.65;;;3.88;;
14118;SDS011;7138;49.246;9.100;2023-04-15T03:57:41;8.63;;;3.97;;
14118;SDS011;7138;49.246;9.100;2023-04-15T04:00:09;9.50;;;4.40;;
14118;SDS011;7138;49.246;9.100;2023-04-15T04:02:35;7.15;;;3.72;;
14118;SDS011;7138;49.246;9.100;2023-04-15T04:05:01;8.65;;;3.80;;
14118;SDS011;7138;49.246;9.100;2023-04-15T04:07:28;9.40;;;4.20;;
14118;SDS011;7138;49.246;9.100;2023-04-15T04:09:55;8.23;;;4.00;;
14118;SDS011;7138;49.246;9.100;2023-04-15T04:12:21;8.07;;;4.55;;
14118;SDS011;7138;49.246;9.100;2023-04-15T04:14:48;8.32;;;3.92;;
14118;SDS011;7138;49.246;9.100;2023-04-15T04:17:15;8.88;;;4.05;;
14118;SDS011;7138;49.246;9.100;2023-04-15T04:19:40;9.30;;;4.28;;
14118;SDS011;7138;49.246;9.100;2023-04-15T04:22:06;7.10;;;4.30;;
14118;SDS011;7138;49.246;9.100;2023-04-15T04:24:32;8.90;;;4.30;;
14118;SDS011;7138;49.246;9.100;2023-04-15T04:26:58;9.45;;;4.68;;
14118;SDS011;7138;49.246;9.100;2023-04-15T04:29:24;10.00;;;4.47;;
14118;SDS011;7138;49.246;9.100;2023-04-15T04:31:51;10.23;;;4.43;;
14118;SDS011;7138;49.246;9.100;2023-04-15T04:34:18;8.88;;;4.10;;
14118;SDS011;7138;49.246;9.100;2023-04-15T04:36:44;7.63;;;4.05;;
14118;SDS011;7138;49.246;9.100;2023-04-15T04:39:10;6.40;;;3.75;;
14118;SDS011;7138;49.246;9.100;2023-04-15T04:41:35;6.30;;;4.00;;
14118;SDS011;7138;49.246;9.100;2023-04-15T04:44:01;7.63;;;4.82;;
14118;SDS011;7138;49.246;9.100;2023-04-15T04:46:27;9.63;;;4.00;;
14118;SDS011;7138;49.246;9.100;2023-04-15T04:48:53;9.60;;;4.07;;
14118;SDS011;7138;49.246;9.100;2023-04-15T04:51:23;6.20;;;3.58;;
14118;SDS011;7138;49.246;9.100;2023-04-15T04:53:49;6.50;;;3.80;;
14118;SDS011;7138;49.246;9.100;2023-04-15T04:56:15;9.25;;;4.03;;
14118;SDS011;7138;49.246;9.100;2023-04-15T04:58:40;8.27;;;3.90;;
14118;SDS011;7138;49.246;9.100;2023-04-15T05:01:06;9.43;;;4.72;;
14118;SDS011;7138;49.246;9.100;2023-04-15T05:03:33;8.57;;;4.78;;
14118;SDS011;7138;49.246;9.100;2023-04-15T05:05:58;7.30;;;4.03;;
14118;SDS011;7138;49.246;9.100;2023-04-15T05:08:26;7.30;;;4.28;;
14118;SDS011;7138;49.246;9.100;2023-04-15T05:10:52;10.95;;;4.97;;
14118;SDS011;7138;49.246;9.100;2023-04-15T05:13:17;8.48;;;4.60;;
14118;SDS011;7138;49.246;9.100;2023-04-15T05:15:45;8.25;;;4.50;;
14118;SDS011;7138;49.246;9.100;2023-04-15T05:18:11;9.30;;;4.93;;
14118;SDS011;7138;49.246;9.100;2023-04-15T05:20:37;9.57;;;5.03;;
14118;SDS011;7138;49.246;9.100;2023-04-15T05:23:03;9.52;;;4.28;;
14118;SDS011;7138;49.246;9.100;2023-04-15T05:25:30;7.53;;;3.90;;
14118;SDS011;7138;49.246;9.100;2023-04-15T05:27:56;8.43;;;4.28;;
14118;SDS011;7138;49.246;9.100;2023-04-15T05:30:22;6.30;;;3.60;;
14118;SDS011;7138;49.246;9.100;2023-04-15T05:32:47;6.82;;;3.80;;
14118;SDS011;7138;49.246;9.100;2023-04-15T05:35:14;6.88;;;3.50;;
14118;SDS011;7138;49.246;9.100;2023-04-15T05:37:40;7.13;;;4.18;;
14118;SDS011;7138;49.246;9.100;2023-04-15T05:40:06;7.05;;;3.97;;
14118;SDS011;7138;49.246;9.100;2023-04-15T05:42:35;6.88;;;3.90;;
14118;SDS011;7138;49.246;9.100;2023-04-15T05:45:01;8.55;;;3.78;;
14118;SDS011;7138;49.246;9.100;2023-04-15T05:47:29;6.57;;;3.83;;
14118;SDS011;7138;49.246;9.100;2023-04-15T05:49:55;6.55;;;3.97;;
14118;SDS011;7138;49.246;9.100;2023-04-15T05:52:23;6.53;;;4.07;;
14118;SDS011;7138;49.246;9.100;2023-04-15T05:54:48;8.13;;;3.85;;
14118;SDS011;7138;49.246;9.100;2023-04-15T05:57:14;8.52;;;4.32;;
14118;SDS011;7138;49.246;9.100;2023-04-15T05:59:41;8.45;;;4.97;;
14118;SDS011;7138;49.246;9.100;2023-04-15T06:02:08;31.48;;;17.05;;
14118;SDS011;7138;49.246;9.100;2023-04-15T06:04:34;14.32;;;8.57;;
14118;SDS011;7138;49.246;9.100;2023-04-15T06:07:00;8.68;;;4.22;;
14118;SDS011;7138;49.246;9.100;2023-04-15T06:09:26;6.18;;;3.83;;
14118;SDS011;7138;49.246;9.100;2023-04-15T06:11:53;6.63;;;3.83;;
14118;SDS011;7138;49.246;9.100;2023-04-15T06:14:20;5.95;;;4.00;;
14118;SDS011;7138;49.246;9.100;2023-04-15T06:16:47;7.70;;;3.58;;
14118;SDS011;7138;49.246;9.100;2023-04-15T06:19:13;8.40;;;3.75;;
14118;SDS011;7138;49.246;9.100;2023-04-15T06:21:38;7.93;;;4.38;;
14118;SDS011;7138;49.246;9.100;2023-04-15T06:24:05;8.75;;;4.07;;
14118;SDS011;7138;49.246;9.100;2023-04-15T06:26:31;10.50;;;4.53;;
14118;SDS011;7138;49.246;9.100;2023-04-15T06:28:57;9.30;;;5.32;;
14118;SDS011;7138;49.246;9.100;2023-04-15T06:31:23;7.32;;;4.65;;
14118;SDS011;7138;49.246;9.100;2023-04-15T06:33:50;8.65;;;5.03;;
14118;SDS011;7138;49.246;9.100;2023-04-15T06:36:16;12.85;;;5.13;;
14118;SDS011;7138;49.246;9.100;2023-04-15T06:38:41;12.05;;;5.57;;
14118;SDS011;7138;49.246;9.100;2023-04-15T06:41:07;8.95;;;4.90;;
14118;SDS011;7138;49.246;9.100;2023-04-15T06:43:33;9.18;;;5.22;;
14118;SDS011;7138;49.246;9.100;2023-04-15T06:45:59;7.38;;;4.53;;
14118;SDS011;7138;49.246;9.100;2023-04-15T06:48:25;7.95;;;4.40;;
14118;SDS011;7138;49.246;9.100;2023-04-15T06:50:52;8.63;;;5.22;;
14118;SDS011;7138;49.246;9.100;2023-04-15T06:53:18;8.35;;;5.15;;
14118;SDS011;7138;49.246;9.100;2023-04-15T06:55:44;13.00;;;5.20;;
14118;SDS011;7138;49.246;9.100;2023-04-15T06:58:10;11.30;;;5.10;;
14118;SDS011;7138;49.246;9.100;2023-04-15T07:00:36;13.35;;;5.28;;
14118;SDS011;7138;49.246;9.100;2023-04-15T07:03:03;9.40;;;4.78;;
14118;SDS011;7138;49.246;9.100;2023-04-15T07:05:29;10.77;;;4.80;;
14118;SDS011;7138;49.246;9.100;2023-04-15T07:07:57;11.13;;;5.15;;
14118;SDS011;7138;49.246;9.100;2023-04-15T07:10:24;9.73;;;5.45;;
14118;SDS011;7138;49.246;9.100;2023-04-15T07:12:50;9.07;;;5.40;;
14118;SDS011;7138;49.246;9.100;2023-04-15T07:15:16;8.35;;;5.63;;
14118;SDS011;7138;49.246;9.100;2023-04-15T07:17:42;10.73;;;5.43;;
14118;SDS011;7138;49.246;9.100;2023-04-15T07:20:08;10.90;;;6.07;;
14118;SDS011;7138;49.246;9.100;2023-04-15T07:22:35;10.95;;;5.55;;
14118;SDS011;7138;49.246;9.100;2023-04-15T07:25:02;9.70;;;5.78;;
14118;SDS011;7138;49.246;9.100;2023-04-15T07:27:29;11.35;;;7.28;;
14118;SDS011;7138;49.246;9.100;2023-04-15T07:29:55;12.10;;;6.05;;
14118;SDS011;7138;49.246;9.100;2023-04-15T07:32:21;10.00;;;5.75;;
14118;SDS011;7138;49.246;9.100;2023-04-15T07:34:47;11.88;;;6.72;;
14118;SDS011;7138;49.246;9.100;2023-04-15T07:37:13;8.55;;;5.72;;
14118;SDS011;7138;49.246;9.100;2023-04-15T07:39:39;12.13;;;5.80;;
14118;SDS011;7138;49.246;9.100;2023-04-15T07:42:07;10.15;;;6.25;;
14118;SDS011;7138;49.246;9.100;2023-04-15T07:44:33;10.25;;;6.00;;
14118;SDS011;7138;49.246;9.100;2023-04-15T07:47:00;9.95;;;6.30;;
14118;SDS011;7138;49.246;9.100;2023-04-15T07:49:27;11.80;;;6.10;;
14118;SDS011;7138;49.246;9.100;2023-04-15T07:51:53;13.88;;;8.00;;
14118;SDS011;7138;49.246;9.100;2023-04-15T07:54:19;14.00;;;7.72;;
14118;SDS011;7138;49.246;9.100;2023-04-15T07:56:44;14.10;;;7.80;;
14118;SDS011;7138;49.246;9.100;2023-04-15T07:59:12;13.00;;;7.82;;
14118;SDS011;7138;49.246;9.100;2023-04-15T08:01:39;14.88;;;8.93;;
14118;SDS011;7138;49.246;9.100;2023-04-15T08:04:05;11.80;;;7.28;;
14118;SDS011;7138;49.246;9.100;2023-04-15T08:06:31;13.50;;;7.25;;
14118;SDS011;7138;49.246;9.100;2023-04-15T08:08:57;13.65;;;7.40;;
14118;SDS011;7138;49.246;9.100;2023-04-15T08:11:23;16.92;;;7.65;;
14118;SDS011;7138;49.246;9.100;2023-04-15T08:13:48;10.18;;;5.75;;
14118;SDS011;7138;49.246;9.100;2023-04-15T08:16:18;10.13;;;5.68;;
14118;SDS011;7138;49.246;9.100;2023-04-15T08:18:49;11.85;;;6.03;;
14118;SDS011;7138;49.246;9.100;2023-04-15T08:21:16;8.35;;;5.32;;
14118;SDS011;7138;49.246;9.100;2023-04-15T08:23:44;8.20;;;5.05;;
14118;SDS011;7138;49.246;9.100;2023-04-15T08:26:12;8.43;;;5.13;;
14118;SDS011;7138;49.246;9.100;2023-04-15T08:28:38;7.47;;;4.70;;
14118;SDS011;7138;49.246;9.100;2023-04-15T08:31:06;8.15;;;4.70;;
14118;SDS011;7138;49.246;9.100;2023-04-15T08:33:34;8.18;;;4.40;;
14118;SDS011;7138;49.246;9.100;2023-04-15T08:35:59;8.07;;;4.38;;
14118;SDS011;7138;49.246;9.100;2023-04-15T08:38:25;8.40;;;4.65;;
14118;SDS011;7138;49.246;9.100;2023-04-15T08:40:51;7.88;;;4.18;;
14118;SDS011;7138;49.246;9.100;2023-04-15T08:43:18;9.48;;;3.80;;
14118;SDS011;7138;49.246;9.100;2023-04-15T08:45:52;9.10;;;4.35;;
14118;SDS011;7138;49.246;9.100;2023-04-15T08:48:19;10.13;;;4.30;;
14118;SDS011;7138;49.246;9.100;2023-04-15T08:50:49;8.38;;;3.75;;
14118;SDS011;7138;49.246;9.100;2023-04-15T08:53:16;5.78;;;2.90;;
14118;SDS011;7138;49.246;9.100;2023-04-15T08:55:43;7.18;;;3.08;;
14118;SDS011;7138;49.246;9.100;2023-04-15T08:58:11;6.97;;;2.65;;
14118;SDS011;7138;49.246;9.100;2023-04-15T09:00:40;5.78;;;2.45;;
14118;SDS011;7138;49.246;9.100;2023-04-15T09:03:06;7.28;;;2.03;;
14118;SDS011;7138;49.246;9.100;2023-04-15T09:05:34;4.13;;;2.00;;
14118;SDS011;7138;49.246;9.100;2023-04-15T09:08:02;5.55;;;2.03;;
14118;SDS011;7138;49.246;9.100;2023-04-15T09:10:29;6.05;;;2.20;;
14118;SDS011;7138;49.246;9.100;2023-04-15T09:12:57;7.80;;;2.10;;
14118;SDS011;7138;49.246;9.100;2023-04-15T09:15:23;4.40;;;1.48;;
14118;SDS011;7138;49.246;9.100;2023-04-15T09:17:51;3.90;;;1.80;;
14118;SDS011;7138;49.246;9.100;2023-04-15T09:20:17;4.50;;;1.60;;
14118;SDS011;7138;49.246;9.100;2023-04-15T09:22:44;4.32;;;1.70;;
14118;SDS011;7138;49.246;9.100;2023-04-15T09:25:25;5.70;;;1.40;;
14118;SDS011;7138;49.246;9.100;2023-04-15T09:27:53;4.13;;;1.40;;
14118;SDS011;7138;49.246;9.100;2023-04-15T09:30:21;4.03;;;2.08;;
14118;SDS011;7138;49.246;9.100;2023-04-15T09:32:48;4.38;;;1.80;;
14118;SDS011;7138;49.246;9.100;2023-04-15T09:35:15;4.15;;;1.80;;
14118;SDS011;7138;49.246;9.100;2023-04-15T09:37:42;4.00;;;1.50;;
14118;SDS011;7138;49.246;9.100;2023-04-15T09:40:08;3.50;;;1.63;;
14118;SDS011;7138;49.246;9.100;2023-04-15T09:42:36;3.67;;;1.40;;
14118;SDS011;7138;49.246;9.100;2023-04-15T09:45:19;10.25;;;2.15;;
14118;SDS011;7138;49.246;9.100;2023-04-15T09:47:46;8.32;;;2.30;;
14118;SDS011;7138;49.246;9.100;2023-04-15T09:50:12;5.88;;;2.05;;
14118;SDS011;7138;49.246;9.100;2023-04-15T09:52:40;5.10;;;2.55;;
14118;SDS011;7138;49.246;9.100;2023-04-15T09:55:08;5.60;;;2.50;;
14118;SDS011;7138;49.246;9.100;2023-04-15T09:57:36;6.47;;;2.47;;
14118;SDS011;7138;49.246;9.100;2023-04-15T10:00:05;7.47;;;2.58;;
14118;SDS011;7138;49.246;9.100;2023-04-15T10:02:35;4.60;;;2.20;;
14118;SDS011;7138;49.246;9.100;2023-04-15T10:05:02;5.22;;;2.42;;
14118;SDS011;7138;49.246;9.100;2023-04-15T10:07:28;5.43;;;2.25;;
14118;SDS011;7138;49.246;9.100;2023-04-15T10:09:54;5.32;;;2.50;;
14118;SDS011;7138;49.246;9.100;2023-04-15T10:12:23;6.75;;;2.55;;
14118;SDS011;7138;49.246;9.100;2023-04-15T10:14:55;7.63;;;2.30;;
14118;SDS011;7138;49.246;9.100;2023-04-15T10:17:24;5.95;;;2.45;;
14118;SDS011;7138;49.246;9.100;2023-04-15T10:19:57;4.85;;;2.45;;
14118;SDS011;7138;49.246;9.100;2023-04-15T10:22:25;5.93;;;2.33;;
14118;SDS011;7138;49.246;9.100;2023-04-15T10:24:53;7.07;;;2.33;;
14118;SDS011;7138;49.246;9.100;2023-04-15T10:27:20;4.88;;;2.47;;
14118;SDS011;7138;49.246;9.100;2023-04-15T10:29:47;6.22;;;2.42;;
14118;SDS011;7138;49.246;9.100;2023-04-15T10:32:16;6.65;;;2.22;;
14118;SDS011;7138;49.246;9.100;2023-04-15T10:34:45;4.60;;;2.30;;
14118;SDS011;7138;49.246;9.100;2023-04-15T10:37:18;6.07;;;2.10;;
14118;SDS011;7138;49.246;9.100;2023-04-15T10:39:46;5.07;;;2.20;;
14118;SDS011;7138;49.246;9.100;2023-04-15T10:42:12;4.43;;;1.85;;
14118;SDS011;7138;49.246;9.100;2023-04-15T10:44:41;6.43;;;2.58;;
14118;SDS011;7138;49.246;9.100;2023-04-15T10:47:09;5.75;;;1.83;;
14118;SDS011;7138;49.246;9.100;2023-04-15T10:49:45;6.72;;;2.30;;
14118;SDS011;7138;49.246;9.100;2023-04-15T10:52:14;5.20;;;2.20;;
14118;SDS011;7138;49.246;9.100;2023-04-15T10:54:42;4.65;;;2.20;;
14118;SDS011;7138;49.246;9.100;2023-04-15T10:57:13;6.10;;;2.25;;
14118;SDS011;7138;49.246;9.100;2023-04-15T11:00:00;6.82;;;2.22;;
14118;SDS011;7138;49.246;9.100;2023-04-15T11:05:22;4.65;;;1.60;;
14118;SDS011;7138;49.246;9.100;2023-04-15T11:08:15;4.68;;;2.00;;
14118;SDS011;7138;49.246;9.100;2023-04-15T11:10:51;4.88;;;1.90;;
14118;SDS011;7138;49.246;9.100;2023-04-15T11:13:25;3.33;;;1.63;;
14118;SDS011;7138;49.246;9.100;2023-04-15T11:16:01;3.88;;;1.70;;
14118;SDS011;7138;49.246;9.100;2023-04-15T11:18:29;3.95;;;1.50;;
14118;SDS011;7138;49.246;9.100;2023-04-15T11:20:58;3.43;;;1.40;;
14118;SDS011;7138;49.246;9.100;2023-04-15T11:23:28;3.60;;;1.30;;
14118;SDS011;7138;49.246;9.100;2023-04-15T11:25:58;4.35;;;1.20;;
14118;SDS011;7138;49.246;9.100;2023-04-15T11:28:26;6.45;;;2.10;;
14118;SDS011;7138;49.246;9.100;2023-04-15T11:30:55;6.00;;;1.75;;
14118;SDS011;7138;49.246;9.100;2023-04-15T11:33:21;4.63;;;1.42;;
14118;SDS011;7138;49.246;9.100;2023-04-15T11:35:48;3.83;;;1.35;;
14118;SDS011;7138;49.246;9.100;2023-04-15T11:38:18;3.15;;;0.85;;
14118;SDS011;7138;49.246;9.100;2023-04-15T11:40:44;2.30;;;0.82;;
14118;SDS011;7138;49.246;9.100;2023-04-15T11:43:10;4.22;;;1.00;;
14118;SDS011;7138;49.246;9.100;2023-04-15T11:45:46;3.90;;;1.00;;
14118;SDS011;7138;49.246;9.100;2023-04-15T11:48:15;3.92;;;0.90;;
14118;SDS011;7138;49.246;9.100;2023-04-15T11:50:41;4.13;;;0.75;;
14118;SDS011;7138;49.246;9.100;2023-04-15T11:53:08;3.75;;;1.08;;
14118;SDS011;7138;49.246;9.100;2023-04-15T11:55:46;5.68;;;0.82;;
14118;SDS011;7138;49.246;9.100;2023-04-15T11:58:15;4.38;;;1.00;;
14118;SDS011;7138;49.246;9.100;2023-04-15T12:00:47;3.30;;;0.90;;
14118;SDS011;7138;49.246;9.100;2023-04-15T12:03:17;4.03;;;1.10;;
14118;SDS011;7138;49.246;9.100;2023-04-15T12:06:07;3.65;;;1.20;;
14118;SDS011;7138;49.246;9.100;2023-04-15T12:08:50;4.00;;;1.17;;
14118;SDS011;7138;49.246;9.100;2023-04-15T12:11:30;4.13;;;1.00;;
14118;SDS011;7138;49.246;9.100;2023-04-15T12:14:09;3.85;;;1.00;;
14118;SDS011;7138;49.246;9.100;2023-04-15T12:16:40;2.47;;;0.80;;
14118;SDS011;7138;49.246;9.100;2023-04-15T12:19:10;1.98;;;0.60;;
14118;SDS011;7138;49.246;9.100;2023-04-15T12:21:39;2.95;;;0.75;;
14118;SDS011;7138;49.246;9.100;2023-04-15T12:24:08;2.20;;;0.50;;
14118;SDS011;7138;49.246;9.100;2023-04-15T12:26:42;2.40;;;0.70;;
14118;SDS011;7138;49.246;9.100;2023-04-15T12:29:10;2.88;;;0.80;;
14118;SDS011;7138;49.246;9.100;2023-04-15T12:31:45;2.63;;;0.80;;
14118;SDS011;7138;49.246;9.100;2023-04-15T12:34:14;2.92;;;0.80;;
14118;SDS011;7138;49.246;9.100;2023-04-15T12:36:40;2.35;;;0.80;;
14118;SDS011;7138;49.246;9.100;2023-04-15T12:39:07;3.20;;;0.77;;
14118;SDS011;7138;49.246;9.100;2023-04-15T12:41:33;2.65;;;0.90;;
14118;SDS011;7138;49.246;9.100;2023-04-15T12:44:01;1.50;;;0.60;;
14118;SDS011;7138;49.246;9.100;2023-04-15T12:46:26;3.20;;;0.95;;
14118;SDS011;7138;49.246;9.100;2023-04-15T12:48:52;2.42;;;0.90;;
14118;SDS011;7138;49.246;9.100;2023-04-15T12:51:18;2.80;;;0.82;;
14118;SDS011;7138;49.246;9.100;2023-04-15T12:53:47;6.28;;;1.02;;
14118;SDS011;7138;49.246;9.100;2023-04-15T12:56:13;2.97;;;1.10;;
14118;SDS011;7138;49.246;9.100;2023-04-15T12:58:41;4.80;;;1.40;;
14118;SDS011;7138;49.246;9.100;2023-04-15T13:01:08;6.50;;;2.65;;
14118;SDS011;7138;49.246;9.100;2023-04-15T13:03:35;6.57;;;2.75;;
14118;SDS011;7138;49.246;9.100;2023-04-15T13:06:01;2.50;;;0.88;;
14118;SDS011;7138;49.246;9.100;2023-04-15T13:08:28;2.50;;;1.00;;
14118;SDS011;7138;49.246;9.100;2023-04-15T13:10:54;4.20;;;1.00;;
14118;SDS011;7138;49.246;9.100;2023-04-15T13:13:20;3.15;;;1.05;;
14118;SDS011;7138;49.246;9.100;2023-04-15T13:15:46;5.75;;;1.13;;
14118;SDS011;7138;49.246;9.100;2023-04-15T13:18:13;5.35;;;1.25;;
14118;SDS011;7138;49.246;9.100;2023-04-15T13:20:40;2.40;;;0.90;;
14118;SDS011;7138;49.246;9.100;2023-04-15T13:23:06;4.07;;;1.08;;
14118;SDS011;7138;49.246;9.100;2023-04-15T13:25:32;1.70;;;0.70;;
14118;SDS011;7138;49.246;9.100;2023-04-15T13:27:58;3.65;;;1.10;;
14118;SDS011;7138;49.246;9.100;2023-04-15T13:30:25;3.67;;;1.05;;
14118;SDS011;7138;49.246;9.100;2023-04-15T13:32:51;3.78;;;1.40;;
14118;SDS011;7138;49.246;9.100;2023-04-15T13:35:19;3.10;;;0.88;;
14118;SDS011;7138;49.246;9.100;2023-04-15T13:37:45;3.75;;;1.23;;
14118;SDS011;7138;49.246;9.100;2023-04-15T13:40:11;3.20;;;1.20;;
14118;SDS011;7138;49.246;9.100;2023-04-15T13:42:37;3.72;;;1.08;;
14118;SDS011;7138;49.246;9.100;2023-04-15T13:45:03;3.10;;;1.15;;
14118;SDS011;7138;49.246;9.100;2023-04-15T13:47:31;4.43;;;1.20;;
14118;SDS011;7138;49.246;9.100;2023-04-15T13:49:57;2.63;;;1.05;;
14118;SDS011;7138;49.246;9.100;2023-04-15T13:52:24;2.47;;;0.98;;
14118;SDS011;7138;49.246;9.100;2023-04-15T13:54:50;3.42;;;1.27;;
14118;SDS011;7138;49.246;9.100;2023-04-15T13:57:16;2.97;;;1.02;;
14118;SDS011;7138;49.246;9.100;2023-04-15T13:59:42;4.28;;;1.40;;
14118;SDS011;7138;49.246;9.100;2023-04-15T14:02:08;3.65;;;1.30;;
14118;SDS011;7138;49.246;9.100;2023-04-15T14:04:34;4.72;;;1.88;;
14118;SDS011;7138;49.246;9.100;2023-04-15T14:07:00;3.40;;;1.42;;
14118;SDS011;7138;49.246;9.100;2023-04-15T14:09:27;3.08;;;1.30;;
14118;SDS011;7138;49.246;9.100;2023-04-15T14:11:54;3.42;;;1.23;;
14118;SDS011;7138;49.246;9.100;2023-04-15T14:14:20;7.90;;;1.65;;
14118;SDS011;7138;49.246;9.100;2023-04-15T14:16:46;3.50;;;1.20;;
14118;SDS011;7138;49.246;9.100;2023-04-15T14:19:13;4.65;;;1.40;;
14118;SDS011;7138;49.246;9.100;2023-04-15T14:21:39;2.95;;;1.13;;
14118;SDS011;7138;49.246;9.100;2023-04-15T14:24:05;3.67;;;1.20;;
14118;SDS011;7138;49.246;9.100;2023-04-15T14:26:32;2.55;;;1.20;;
14118;SDS011;7138;49.246;9.100;2023-04-15T14:28:58;4.85;;;1.30;;
14118;SDS011;7138;49.246;9.100;2023-04-15T14:31:25;4.50;;;1.20;;
14118;SDS011;7138;49.246;9.100;2023-04-15T14:33:51;3.75;;;1.30;;
14118;SDS011;7138;49.246;9.100;2023-04-15T14:36:16;2.63;;;1.10;;
14118;SDS011;7138;49.246;9.100;2023-04-15T14:38:42;3.83;;;1.80;;
14118;SDS011;7138;49.246;9.100;2023-04-15T14:41:08;3.03;;;1.10;;
14118;SDS011;7138;49.246;9.100;2023-04-15T14:43:36;8.98;;;1.17;;
14118;SDS011;7138;49.246;9.100;2023-04-15T14:46:02;3.42;;;1.10;;
14118;SDS011;7138;49.246;9.100;2023-04-15T14:48:28;3.58;;;1.17;;
14118;SDS011;7138;49.246;9.100;2023-04-15T14:50:55;2.20;;;0.90;;
14118;SDS011;7138;49.246;9.100;2023-04-15T14:53:22;3.05;;;1.10;;
14118;SDS011;7138;49.246;9.100;2023-04-15T14:55:47;4.60;;;1.73;;
14118;SDS011;7138;49.246;9.100;2023-04-15T14:58:13;3.92;;;1.50;;
14118;SDS011;7138;49.246;9.100;2023-04-15T15:00:42;3.65;;;1.75;;
14118;SDS011;7138;49.246;9.100;2023-04-15T15:03:08;4.05;;;1.63;;
14118;SDS011;7138;49.246;9.100;2023-04-15T15:05:39;3.95;;;1.80;;